Time;durP1;ratioP1;P1;durP2;ratioP2;P2;SDS_P1;SDS_P2;PMS_P1;PMS_P2;Temp;Humidity;BMP_temperature;BMP_pressure;BME280_temperature;BME280_humidity;BME280_pressure;Samples;Min_cycle;Max_cycle;Signal;HPM_P1;HPM_P2
2022/04/07 04:19:14;;;;;;;;;;;17.90;99.90;;;;;;5149338;23;19931;-75
2022/04/07 04:21:40;;;;;;;;;;;17.90;99.90;;;;;;4880409;29;20323;-76
2022/04/07 04:24:10;;;;;;;;;;;17.90;99.90;;;;;;4895013;29;19967;-76
2022/04/07 04:26:37;;;;;;;;;;;17.90;99.90;;;;;;4896987;29;19915;-77
2022/04/07 04:29:04;;;;;;;;;;;17.90;99.90;;;;;;4897159;29;19979;-76
2022/04/07 04:31:30;;;;;;;;;;;18.00;99.90;;;;;;4896759;29;19915;-77
2022/04/07 04:33:57;;;;;;;;;;;18.00;99.90;;;;;;4896506;29;19923;-76
2022/04/07 04:36:24;;;;;;;;;;;18.00;99.90;;;;;;4896633;29;19916;-77
2022/04/07 04:38:51;;;;;;;;;;;18.00;99.90;;;;;;4897165;29;20286;-77
2022/04/07 04:41:21;;;;;;;;;;;18.00;99.90;;;;;;4896757;29;19998;-77
2022/04/07 04:43:47;;;;;;;;;;;18.00;99.90;;;;;;4896392;29;19911;-75
2022/04/07 04:46:14;;;;;;;;;;;18.00;99.90;;;;;;4896811;29;19966;-76
2022/04/07 04:48:41;;;;;;;;;;;17.90;99.90;;;;;;4895796;29;19911;-77
2022/04/07 04:51:07;;;;;;;;;;;17.90;99.90;;;;;;4896525;29;20063;-77
2022/04/07 04:53:34;;;;;;;;;;;17.90;99.90;;;;;;4896008;29;19923;-77
2022/04/07 04:56:01;;;;;;;;;;;17.80;99.90;;;;;;4896495;29;20507;-76
2022/04/07 04:58:28;;;;;;;;;;;17.80;99.90;;;;;;4896343;29;19915;-77
2022/04/07 05:00:54;;;;;;;;;;;17.80;99.90;;;;;;4895946;29;19922;-77
2022/04/07 05:03:21;;;;;;;;;;;17.80;99.90;;;;;;4896230;29;20018;-78
2022/04/07 05:05:48;;;;;;;;;;;17.70;99.90;;;;;;4896067;29;20153;-76
2022/04/07 05:08:14;;;;;;;;;;;17.70;99.90;;;;;;4895908;29;19923;-76
2022/04/07 05:10:41;;;;;;;;;;;17.70;99.90;;;;;;4895226;29;19990;-77
2022/04/07 05:13:08;;;;;;;;;;;17.50;99.90;;;;;;4896133;29;19966;-77
2022/04/07 05:15:37;;;;;;;;;;;17.50;99.90;;;;;;4895633;29;19917;-78
2022/04/07 05:18:04;;;;;;;;;;;17.60;99.90;;;;;;4895335;29;20370;-77
2022/04/07 05:20:31;;;;;;;;;;;17.60;99.90;;;;;;4896254;29;19990;-77
2022/04/07 05:22:57;;;;;;;;;;;17.50;99.90;;;;;;4895698;29;19923;-77
2022/04/07 05:25:24;;;;;;;;;;;17.50;99.90;;;;;;4895692;29;20003;-78
2022/04/07 05:27:51;;;;;;;;;;;17.50;99.90;;;;;;4878690;29;20327;-75
2022/04/07 05:30:18;;;;;;;;;;;17.60;99.90;;;;;;4895882;29;20371;-76
2022/04/07 05:32:45;;;;;;;;;;;17.60;99.90;;;;;;4895484;29;19911;-73
2022/04/07 05:35:12;;;;;;;;;;;17.60;99.90;;;;;;4895686;29;19911;-75
2022/04/07 05:37:39;;;;;;;;;;;17.60;99.90;;;;;;4895338;29;19911;-75
2022/04/07 05:40:06;;;;;;;;;;;17.50;99.90;;;;;;4895325;29;19912;-75
2022/04/07 05:42:33;;;;;;;;;;;17.60;99.90;;;;;;4895964;29;19951;-74
2022/04/07 05:44:59;;;;;;;;;;;17.60;99.90;;;;;;4895863;29;19912;-76
2022/04/07 05:47:26;;;;;;;;;;;17.60;99.90;;;;;;4895021;29;19916;-76
2022/04/07 05:49:56;;;;;;;;;;;17.60;99.90;;;;;;4895550;29;20010;-75
2022/04/07 05:52:23;;;;;;;;;;;17.70;99.90;;;;;;4895471;29;19998;-76
2022/04/07 05:54:50;;;;;;;;;;;17.60;99.90;;;;;;4895150;29;19979;-75
2022/04/07 05:57:16;;;;;;;;;;;17.60;99.90;;;;;;4895465;29;19923;-76
2022/04/07 05:59:43;;;;;;;;;;;17.50;99.90;;;;;;4895359;29;20426;-76
2022/04/07 06:02:10;;;;;;;;;;;17.50;99.90;;;;;;4878330;29;20483;-75
2022/04/07 06:04:39;;;;;;;;;;;17.50;99.90;;;;;;4895379;29;20010;-76
2022/04/07 06:07:05;;;;;;;;;;;17.50;99.90;;;;;;4895284;29;19917;-76
2022/04/07 06:09:34;;;;;;;;;;;17.50;99.90;;;;;;4895568;29;19919;-76
2022/04/07 06:12:01;;;;;;;;;;;17.50;99.90;;;;;;4895393;29;19918;-74
2022/04/07 06:14:28;;;;;;;;;;;17.50;99.90;;;;;;4895386;29;20362;-74
2022/04/07 06:16:54;;;;;;;;;;;17.50;99.90;;;;;;4894863;29;20014;-75
2022/04/07 06:19:21;;;;;;;;;;;17.50;99.90;;;;;;4894814;29;20386;-76
2022/04/07 06:21:48;;;;;;;;;;;17.50;99.90;;;;;;4896476;29;19967;-76
2022/04/07 06:24:14;;;;;;;;;;;17.60;99.90;;;;;;4899182;29;19916;-76
2022/04/07 06:26:41;;;;;;;;;;;17.60;99.90;;;;;;4899377;29;19915;-77
2022/04/07 06:29:08;;;;;;;;;;;17.60;99.90;;;;;;4899757;29;20019;-75
2022/04/07 06:31:34;;;;;;;;;;;17.60;99.90;;;;;;4898636;29;19918;-76
2022/04/07 06:34:01;;;;;;;;;;;17.60;99.90;;;;;;4881719;29;20014;-77
2022/04/07 06:36:28;;;;;;;;;;;17.60;99.90;;;;;;4898899;29;19918;-76
2022/04/07 06:38:54;;;;;;;;;;;17.50;99.90;;;;;;4898966;29;19955;-75
2022/04/07 06:41:21;;;;;;;;;;;17.60;99.90;;;;;;4898977;29;19912;-76
2022/04/07 06:44:12;;;;;;;;;;;17.70;99.90;;;;;;4899115;29;19912;-77
2022/04/07 06:46:56;;;;;;;;;;;17.60;99.90;;;;;;4898687;29;19951;-75
2022/04/07 07:01:53;;;;;;;;;;;17.60;99.90;;;;;;5269682;24;19998;-71
2022/04/07 07:04:19;;;;;;;;;;;17.50;99.90;;;;;;4878891;29;19924;-73
2022/04/07 07:06:46;;;;;;;;;;;17.50;99.90;;;;;;4879917;29;19997;-73
2022/04/07 07:09:13;;;;;;;;;;;17.50;99.90;;;;;;4880090;29;19962;-73
2022/04/07 07:11:40;;;;;;;;;;;17.50;99.90;;;;;;4879689;29;20259;-74
2022/04/07 07:14:07;;;;;;;;;;;17.50;99.90;;;;;;4879588;29;19935;-74
2022/04/07 07:16:33;;;;;;;;;;;17.50;99.90;;;;;;4879141;29;20302;-74
2022/04/07 07:19:00;;;;;;;;;;;17.50;99.90;;;;;;4880320;29;19964;-75
2022/04/07 07:21:27;;;;;;;;;;;17.50;99.90;;;;;;4880465;29;19920;-74
2022/04/07 07:23:54;;;;;;;;;;;17.50;99.90;;;;;;4880197;29;19940;-73
2022/04/07 07:26:20;;;;;;;;;;;17.50;99.90;;;;;;4879122;29;20363;-73
2022/04/07 07:28:47;;;;;;;;;;;17.50;99.90;;;;;;4878811;29;19915;-73
2022/04/07 07:31:14;;;;;;;;;;;17.50;99.90;;;;;;4879061;29;19985;-73
2022/04/07 07:33:40;;;;;;;;;;;17.50;99.90;;;;;;4878412;29;20443;-72
2022/04/07 07:36:07;;;;;;;;;;;17.40;99.90;;;;;;4879919;29;19952;-72
2022/04/07 07:38:34;;;;;;;;;;;17.40;99.90;;;;;;4880256;29;19931;-76
2022/04/07 07:41:01;;;;;;;;;;;17.40;99.90;;;;;;4880117;29;19916;-73
2022/04/07 07:43:28;;;;;;;;;;;17.40;99.90;;;;;;4879713;29;19912;-76
2022/04/07 07:45:54;;;;;;;;;;;17.50;99.90;;;;;;4879945;29;19999;-76
2022/04/07 07:48:25;;;;;;;;;;;17.40;99.90;;;;;;4879904;29;20374;-72
2022/04/07 07:50:52;;;;;;;;;;;17.50;99.90;;;;;;4879918;29;20316;-75
2022/04/07 07:53:18;;;;;;;;;;;17.50;99.90;;;;;;4879699;29;19920;-72
2022/04/07 07:55:45;;;;;;;;;;;17.50;99.90;;;;;;4879124;29;19912;-74
2022/04/07 07:58:12;;;;;;;;;;;17.60;99.90;;;;;;4879916;29;19951;-74
2022/04/07 08:00:39;;;;;;;;;;;17.60;99.90;;;;;;4879712;29;19912;-74
2022/04/07 08:03:06;;;;;;;;;;;17.60;99.90;;;;;;4879169;29;20375;-73
2022/04/07 08:05:32;;;;;;;;;;;17.70;99.90;;;;;;4879496;29;19916;-75
2022/04/07 08:07:59;;;;;;;;;;;17.70;99.90;;;;;;4879144;29;19916;-76
2022/04/07 08:10:26;;;;;;;;;;;17.70;99.90;;;;;;4879630;29;20009;-72
2022/04/07 08:12:52;;;;;;;;;;;17.80;99.90;;;;;;4879450;29;19912;-76
2022/04/07 08:15:19;;;;;;;;;;;17.80;99.90;;;;;;4879355;29;20007;-76
2022/04/07 08:17:46;;;;;;;;;;;17.80;99.90;;;;;;4879114;29;20418;-73
2022/04/07 08:20:13;;;;;;;;;;;17.80;99.90;;;;;;4879086;29;19912;-72
2022/04/07 08:22:39;;;;;;;;;;;17.90;99.90;;;;;;4878948;29;19912;-75
2022/04/07 08:25:06;;;;;;;;;;;17.90;99.90;;;;;;4879331;29;19912;-73
2022/04/07 08:27:33;;;;;;;;;;;17.90;99.90;;;;;;4878915;29;20298;-72
2022/04/07 08:29:59;;;;;;;;;;;17.90;99.90;;;;;;4879177;29;19979;-72
2022/04/07 08:32:26;;;;;;;;;;;17.90;99.90;;;;;;4879218;29;19931;-74
2022/04/07 08:34:53;;;;;;;;;;;17.90;99.90;;;;;;4879044;29;19920;-74
2022/04/07 08:37:20;;;;;;;;;;;17.90;99.90;;;;;;4879322;29;19916;-73
2022/04/07 08:39:47;;;;;;;;;;;18.00;99.90;;;;;;4879023;29;19916;-74
2022/04/07 08:42:14;;;;;;;;;;;18.00;99.90;;;;;;4878876;29;19925;-73
2022/04/07 08:44:40;;;;;;;;;;;18.00;99.90;;;;;;4878962;29;20023;-74
2022/04/07 08:47:07;;;;;;;;;;;18.00;99.90;;;;;;4878505;29;20323;-74
2022/04/07 08:49:37;;;;;;;;;;;18.00;99.90;;;;;;4878783;29;19919;-74
2022/04/07 08:52:05;;;;;;;;;;;18.00;99.90;;;;;;4878918;29;19911;-72
2022/04/07 08:54:32;;;;;;;;;;;18.00;99.90;;;;;;4878933;29;19977;-72
2022/04/07 08:56:59;;;;;;;;;;;18.00;99.90;;;;;;4879920;29;20298;-73
2022/04/07 08:59:26;;;;;;;;;;;18.00;99.90;;;;;;4881331;29;20390;-74
2022/04/07 09:02:00;;;;;;;;;;;18.10;99.90;;;;;;4878766;29;20326;-76
2022/04/07 09:04:29;;;;;;;;;;;18.10;99.90;;;;;;4878890;29;19924;-75
2022/04/07 09:06:56;;;;;;;;;;;18.10;99.90;;;;;;4878659;29;20387;-75
2022/04/07 09:09:23;;;;;;;;;;;18.10;99.90;;;;;;4878591;29;20267;-75
2022/04/07 09:11:54;;;;;;;;;;;18.20;99.90;;;;;;4878384;29;19939;-75
2022/04/07 09:14:21;;;;;;;;;;;18.30;99.90;;;;;;4878251;29;20113;-75
2022/04/07 09:16:52;;;;;;;;;;;18.30;99.90;;;;;;4878461;29;19923;-74
2022/04/07 09:19:20;;;;;;;;;;;18.60;99.90;;;;;;4878371;29;19923;-75
2022/04/07 09:21:47;;;;;;;;;;;18.60;99.90;;;;;;4878170;29;19915;-76
2022/04/07 09:24:15;;;;;;;;;;;18.70;99.90;;;;;;4878248;29;19922;-75
2022/04/07 09:26:43;;;;;;;;;;;18.70;99.90;;;;;;4877751;29;19967;-75
2022/04/07 09:29:10;;;;;;;;;;;18.60;99.90;;;;;;4878283;29;19923;-74
2022/04/07 09:31:39;;;;;;;;;;;18.70;99.90;;;;;;4877743;29;19926;-75
2022/04/07 09:34:06;;;;;;;;;;;18.70;99.90;;;;;;4877856;29;19924;-76
2022/04/07 09:36:32;;;;;;;;;;;18.70;99.90;;;;;;4877993;29;19912;-75
2022/04/07 09:39:01;;;;;;;;;;;18.70;99.90;;;;;;4877592;29;20382;-75
2022/04/07 09:41:31;;;;;;;;;;;18.70;99.90;;;;;;4861350;29;20704;-75
2022/04/07 09:43:59;;;;;;;;;;;18.80;99.90;;;;;;4878051;29;19920;-74
2022/04/07 09:46:26;;;;;;;;;;;18.90;99.90;;;;;;4877922;29;19998;-74
2022/04/07 09:48:59;;;;;;;;;;;18.80;99.90;;;;;;4877742;29;19919;-74
2022/04/07 09:51:29;;;;;;;;;;;18.90;99.90;;;;;;4877899;29;19912;-75
2022/04/07 09:53:56;;;;;;;;;;;18.80;99.90;;;;;;4877534;29;19924;-75
2022/04/07 09:56:27;;;;;;;;;;;18.80;99.90;;;;;;4877284;29;19912;-75
2022/04/07 09:58:55;;;;;;;;;;;18.80;99.90;;;;;;4877845;29;19939;-75
2022/04/07 10:01:22;;;;;;;;;;;18.90;99.90;;;;;;4877686;29;19919;-75
2022/04/07 10:03:52;;;;;;;;;;;18.90;99.90;;;;;;4877250;29;19923;-76
2022/04/07 10:06:20;;;;;;;;;;;19.00;99.90;;;;;;4868045;29;19919;-76
2022/04/07 10:08:48;;;;;;;;;;;19.00;99.90;;;;;;4845970;29;19924;-75
2022/04/07 10:11:16;;;;;;;;;;;19.00;99.90;;;;;;4858023;29;20279;-75
2022/04/07 10:13:43;;;;;;;;;;;19.00;99.90;;;;;;4857978;29;19927;-75
2022/04/07 10:16:10;;;;;;;;;;;19.10;99.90;;;;;;4858267;29;19916;-76
2022/04/07 10:18:42;;;;;;;;;;;19.10;99.90;;;;;;4857999;29;19923;-75
2022/04/07 10:21:11;;;;;;;;;;;19.20;99.90;;;;;;4870440;29;19928;-74
2022/04/07 10:24:06;;;;;;;;;;;19.20;99.90;;;;;;4876533;29;20378;-74
2022/04/07 10:26:33;;;;;;;;;;;19.20;99.90;;;;;;4860528;29;19947;-75
2022/04/07 10:29:00;;;;;;;;;;;19.30;99.90;;;;;;4876839;29;19912;-74
2022/04/07 10:31:28;;;;;;;;;;;19.30;99.90;;;;;;4876548;29;19970;-73
2022/04/07 10:34:06;;;;;;;;;;;19.30;99.90;;;;;;4876919;29;19967;-73
2022/04/07 10:36:38;;;;;;;;;;;19.30;99.90;;;;;;4876314;29;19916;-75
2022/04/07 10:39:11;;;;;;;;;;;19.20;99.90;;;;;;4876500;29;20571;-75
2022/04/07 10:41:37;;;;;;;;;;;19.10;99.90;;;;;;4876538;29;19912;-75
2022/04/07 10:44:14;;;;;;;;;;;19.00;99.90;;;;;;4876248;29;19911;-75
2022/04/07 10:46:41;;;;;;;;;;;19.00;99.90;;;;;;4876024;29;19920;-75
2022/04/07 10:49:12;;;;;;;;;;;19.10;99.90;;;;;;4876285;29;19916;-75
2022/04/07 10:51:45;;;;;;;;;;;19.10;99.90;;;;;;4876136;29;19971;-74
2022/04/07 10:54:12;;;;;;;;;;;19.10;99.90;;;;;;4876258;29;19927;-74
2022/04/07 10:56:39;;;;;;;;;;;19.10;99.90;;;;;;4876531;29;19955;-74
2022/04/07 10:59:12;;;;;;;;;;;19.20;99.90;;;;;;4876378;29;19915;-74
2022/04/07 11:01:41;;;;;;;;;;;19.10;99.90;;;;;;4876769;29;20044;-75
2022/04/07 11:04:17;;;;;;;;;;;19.20;99.90;;;;;;4880759;29;19947;-74
2022/04/07 11:07:03;;;;;;;;;;;19.20;99.90;;;;;;4886320;29;19919;-73
2022/04/07 11:09:49;;;;;;;;;;;19.30;99.90;;;;;;4891291;29;20010;-72
2022/04/07 11:12:29;;;;;;;;;;;19.30;99.90;;;;;;4887743;29;19918;-72
2022/04/07 11:15:02;;;;;;;;;;;19.40;99.90;;;;;;4887836;29;20034;-74
2022/04/07 11:17:34;;;;;;;;;;;19.20;99.90;;;;;;4889851;29;19918;-74
2022/04/07 11:20:17;;;;;;;;;;;19.30;99.90;;;;;;4888582;29;20390;-75
2022/04/07 11:22:48;;;;;;;;;;;19.30;99.90;;;;;;4889910;29;19916;-75
2022/04/07 11:25:16;;;;;;;;;;;19.30;99.90;;;;;;4887248;29;20363;-73
2022/04/07 11:27:44;;;;;;;;;;;19.30;99.90;;;;;;4890392;29;20362;-74
2022/04/07 11:30:19;;;;;;;;;;;19.30;99.90;;;;;;4888293;29;19916;-73
2022/04/07 11:33:04;;;;;;;;;;;19.40;99.90;;;;;;4889989;29;19967;-75
2022/04/07 11:35:33;;;;;;;;;;;19.30;99.90;;;;;;4890452;29;19927;-74
2022/04/07 11:37:59;;;;;;;;;;;19.30;99.90;;;;;;4884010;29;20090;-73
2022/04/07 11:40:26;;;;;;;;;;;19.40;99.90;;;;;;4864537;29;20426;-73
2022/04/07 11:42:53;;;;;;;;;;;19.40;99.90;;;;;;4881375;29;19919;-73
2022/04/07 11:45:19;;;;;;;;;;;19.30;99.90;;;;;;4881302;29;19972;-73
2022/04/07 11:47:49;;;;;;;;;;;19.40;99.90;;;;;;4888320;29;20326;-74
2022/04/07 11:50:16;;;;;;;;;;;19.30;99.90;;;;;;4889720;29;19920;-74
2022/04/07 11:52:42;;;;;;;;;;;19.30;99.90;;;;;;4889284;29;19919;-74
2022/04/07 11:55:09;;;;;;;;;;;19.40;99.90;;;;;;4886539;29;19920;-73
2022/04/07 11:57:36;;;;;;;;;;;19.50;99.90;;;;;;4890001;29;19911;-73
2022/04/07 12:00:06;;;;;;;;;;;19.50;99.90;;;;;;4890671;29;20007;-72
2022/04/07 12:02:33;;;;;;;;;;;19.50;99.90;;;;;;4887177;29;19930;-72
2022/04/07 12:05:01;;;;;;;;;;;19.50;99.90;;;;;;4889148;29;19950;-71
2022/04/07 12:07:28;;;;;;;;;;;19.40;99.90;;;;;;4890713;29;19922;-72
2022/04/07 12:09:58;;;;;;;;;;;19.40;99.90;;;;;;4889350;29;19912;-72
2022/04/07 12:12:25;;;;;;;;;;;19.40;99.90;;;;;;4888525;29;20290;-72
2022/04/07 12:14:52;;;;;;;;;;;19.40;99.90;;;;;;4891014;29;19919;-73
2022/04/07 12:17:22;;;;;;;;;;;19.30;99.90;;;;;;4883745;29;19916;-72
2022/04/07 12:19:49;;;;;;;;;;;19.40;99.90;;;;;;4880185;29;20278;-72
2022/04/07 12:22:16;;;;;;;;;;;19.30;99.90;;;;;;4881034;29;19919;-73
2022/04/07 12:24:59;;;;;;;;;;;19.30;99.90;;;;;;4880708;29;19995;-72
2022/04/07 12:27:27;;;;;;;;;;;19.30;99.90;;;;;;4881101;29;19911;-73
2022/04/07 12:29:54;;;;;;;;;;;19.20;99.90;;;;;;4880739;29;20351;-72
2022/04/07 12:32:20;;;;;;;;;;;19.20;99.90;;;;;;4881177;29;19936;-72
2022/04/07 12:34:50;;;;;;;;;;;19.20;99.90;;;;;;4880521;29;20354;-73
2022/04/07 12:37:27;;;;;;;;;;;19.20;99.90;;;;;;4881134;29;20383;-73
2022/04/07 12:39:54;;;;;;;;;;;19.10;99.90;;;;;;4880472;29;19912;-73
2022/04/07 12:42:21;;;;;;;;;;;19.10;99.90;;;;;;4880831;29;19923;-73
2022/04/07 12:44:49;;;;;;;;;;;19.10;99.90;;;;;;4880511;29;19912;-73
2022/04/07 12:47:17;;;;;;;;;;;19.20;99.90;;;;;;4887289;29;19923;-73
2022/04/07 12:49:57;;;;;;;;;;;19.20;99.90;;;;;;4888399;29;20954;-72
2022/04/07 12:52:37;;;;;;;;;;;19.20;99.90;;;;;;4888785;29;20438;-74
2022/04/07 12:55:05;;;;;;;;;;;19.10;99.90;;;;;;4871723;29;19935;-73
2022/04/07 12:57:33;;;;;;;;;;;19.10;99.90;;;;;;4889949;29;19943;-73
2022/04/07 13:00:06;;;;;;;;;;;19.20;99.90;;;;;;4889668;29;19923;-73
2022/04/07 13:02:46;;;;;;;;;;;19.10;99.90;;;;;;4878116;29;19923;-73
2022/04/07 13:05:13;;;;;;;;;;;19.20;99.90;;;;;;4893155;29;19915;-74
2022/04/07 13:07:40;;;;;;;;;;;19.30;99.90;;;;;;4898752;29;19912;-73
2022/04/07 13:10:08;;;;;;;;;;;19.30;99.90;;;;;;4893273;29;20473;-72
2022/04/07 13:12:35;;;;;;;;;;;19.40;99.90;;;;;;4893523;29;19916;-73
2022/04/07 13:15:02;;;;;;;;;;;19.40;99.90;;;;;;4885880;29;19919;-73
2022/04/07 13:17:29;;;;;;;;;;;19.40;99.90;;;;;;4888886;29;19912;-73
2022/04/07 13:19:55;;;;;;;;;;;19.40;99.90;;;;;;4887693;29;19998;-72
2022/04/07 13:22:23;;;;;;;;;;;19.40;99.90;;;;;;4893337;29;19915;-75
2022/04/07 13:24:51;;;;;;;;;;;19.20;99.90;;;;;;4899031;29;20006;-74
2022/04/07 13:27:18;;;;;;;;;;;19.30;99.90;;;;;;4899028;29;19916;-74
2022/04/07 13:29:46;;;;;;;;;;;19.20;99.90;;;;;;4898386;29;20302;-75
2022/04/07 13:32:13;;;;;;;;;;;19.30;99.90;;;;;;4897970;29;19912;-73
2022/04/07 13:34:39;;;;;;;;;;;19.20;99.90;;;;;;4881857;29;19919;-73
2022/04/07 13:37:06;;;;;;;;;;;19.20;99.90;;;;;;4898762;29;19911;-74
2022/04/07 13:39:33;;;;;;;;;;;19.20;99.90;;;;;;4898318;29;20010;-74
2022/04/07 13:41:59;;;;;;;;;;;19.30;99.90;;;;;;4898583;29;19957;-72
2022/04/07 13:44:27;;;;;;;;;;;19.30;99.90;;;;;;4881647;29;19959;-72
2022/04/07 13:46:54;;;;;;;;;;;19.30;99.90;;;;;;4898728;29;19953;-72
2022/04/07 13:49:22;;;;;;;;;;;19.30;99.90;;;;;;4898702;29;19967;-74
2022/04/07 13:51:48;;;;;;;;;;;19.30;99.90;;;;;;4898309;29;20351;-73
2022/04/07 13:54:15;;;;;;;;;;;19.30;99.90;;;;;;4898420;29;19928;-72
2022/04/07 13:56:41;;;;;;;;;;;19.40;99.90;;;;;;4898549;29;19911;-72
2022/04/07 13:59:08;;;;;;;;;;;19.40;99.90;;;;;;4881715;29;19912;-73
2022/04/07 14:01:35;;;;;;;;;;;19.40;99.90;;;;;;4898176;29;19911;-73
2022/04/07 14:04:01;;;;;;;;;;;19.40;99.90;;;;;;4898252;29;19930;-74
2022/04/07 14:06:28;;;;;;;;;;;19.40;99.90;;;;;;4898283;29;19918;-72
2022/04/07 14:08:55;;;;;;;;;;;19.40;99.90;;;;;;4898281;29;19919;-74
2022/04/07 14:11:22;;;;;;;;;;;19.30;99.90;;;;;;4898134;29;19918;-71
2022/04/07 14:13:49;;;;;;;;;;;19.30;99.90;;;;;;4898141;29;19920;-72
2022/04/07 14:16:16;;;;;;;;;;;19.40;99.90;;;;;;4898123;29;19959;-72
2022/04/07 14:18:43;;;;;;;;;;;19.30;99.90;;;;;;4898368;29;19968;-72
2022/04/07 14:21:13;;;;;;;;;;;19.20;99.90;;;;;;4892224;29;19975;-72
2022/04/07 14:23:40;;;;;;;;;;;19.20;99.90;;;;;;4877052;29;19911;-71
2022/04/07 14:26:06;;;;;;;;;;;19.30;99.90;;;;;;4891145;29;19915;-72
2022/04/07 14:28:33;;;;;;;;;;;19.30;99.90;;;;;;4888998;29;20002;-72
2022/04/07 14:30:59;;;;;;;;;;;19.30;99.90;;;;;;4885606;29;19919;-72
2022/04/07 14:33:26;;;;;;;;;;;19.40;99.90;;;;;;4886491;29;19945;-73
2022/04/07 14:35:53;;;;;;;;;;;19.40;99.90;;;;;;4895114;29;19912;-74
2022/04/07 14:38:19;;;;;;;;;;;19.30;99.90;;;;;;4898181;29;20391;-73
2022/04/07 14:40:46;;;;;;;;;;;19.30;99.90;;;;;;4898109;29;19911;-73
2022/04/07 14:43:13;;;;;;;;;;;19.40;99.90;;;;;;4899944;29;19919;-72
2022/04/07 14:45:40;;;;;;;;;;;19.40;99.90;;;;;;4901622;29;20353;-73
2022/04/07 14:48:07;;;;;;;;;;;19.40;99.90;;;;;;4901679;29;19922;-72
2022/04/07 14:50:38;;;;;;;;;;;19.40;99.90;;;;;;4901685;29;20010;-72
2022/04/07 14:53:04;;;;;;;;;;;19.30;99.90;;;;;;4901732;29;19967;-72
2022/04/07 14:55:31;;;;;;;;;;;19.30;99.90;;;;;;4901693;29;20263;-72
2022/04/07 14:57:59;;;;;;;;;;;19.30;99.90;;;;;;4901644;29;19934;-73
2022/04/07 15:00:25;;;;;;;;;;;19.20;99.90;;;;;;4901370;29;19911;-72
2022/04/07 15:02:52;;;;;;;;;;;19.20;99.90;;;;;;4901344;29;19978;-72
2022/04/07 15:05:19;;;;;;;;;;;19.10;99.90;;;;;;4901468;29;19916;-73
2022/04/07 15:07:45;;;;;;;;;;;19.10;99.90;;;;;;4901124;29;19936;-72
2022/04/07 15:10:12;;;;;;;;;;;19.10;99.90;;;;;;4884438;29;19967;-72
2022/04/07 15:12:39;;;;;;;;;;;19.10;99.90;;;;;;4901421;29;19927;-72
2022/04/07 15:15:06;;;;;;;;;;;19.20;99.90;;;;;;4901152;29;19920;-72
2022/04/07 15:17:32;;;;;;;;;;;19.30;99.90;;;;;;4901049;29;19912;-73
2022/04/07 15:19:59;;;;;;;;;;;19.30;99.90;;;;;;4901077;29;20089;-72
2022/04/07 15:22:26;;;;;;;;;;;19.20;99.90;;;;;;4884286;29;19912;-72
2022/04/07 15:24:52;;;;;;;;;;;19.20;99.90;;;;;;4901187;29;20311;-73
2022/04/07 15:27:19;;;;;;;;;;;19.20;99.90;;;;;;4900862;29;20244;-72
2022/04/07 15:29:46;;;;;;;;;;;19.10;99.90;;;;;;4900421;29;19912;-72
2022/04/07 15:32:14;;;;;;;;;;;19.10;99.90;;;;;;4900941;29;19911;-72
2022/04/07 15:34:40;;;;;;;;;;;19.10;99.90;;;;;;4900961;29;19920;-73
2022/04/07 15:37:07;;;;;;;;;;;19.20;99.90;;;;;;4901004;29;19918;-72
2022/04/07 15:39:35;;;;;;;;;;;19.10;99.90;;;;;;4900845;29;20263;-72
2022/04/07 15:42:01;;;;;;;;;;;19.10;99.90;;;;;;4900794;29;19918;-72
2022/04/07 15:44:28;;;;;;;;;;;19.10;99.90;;;;;;4900497;29;20362;-72
2022/04/07 15:46:55;;;;;;;;;;;19.10;99.90;;;;;;4900672;29;20371;-74
2022/04/07 15:49:22;;;;;;;;;;;19.10;99.90;;;;;;4900746;29;19919;-71
2022/04/07 15:51:49;;;;;;;;;;;19.10;99.90;;;;;;4900510;29;19918;-72
2022/04/07 15:54:17;;;;;;;;;;;19.20;99.90;;;;;;4899504;29;19920;-73
2022/04/07 15:56:44;;;;;;;;;;;19.20;99.90;;;;;;4900462;29;19918;-72
2022/04/07 15:59:10;;;;;;;;;;;19.20;99.90;;;;;;4900325;29;19911;-72
2022/04/07 16:01:37;;;;;;;;;;;19.20;99.90;;;;;;4900166;29;19915;-72
2022/04/07 16:04:04;;;;;;;;;;;19.20;99.90;;;;;;4900122;29;19946;-72
2022/04/07 16:06:30;;;;;;;;;;;19.20;99.90;;;;;;4900455;29;19911;-72
2022/04/07 16:08:58;;;;;;;;;;;19.10;99.90;;;;;;4900342;29;19919;-73
2022/04/07 16:11:25;;;;;;;;;;;19.10;99.90;;;;;;4900458;29;19959;-73
2022/04/07 16:13:52;;;;;;;;;;;19.10;99.90;;;;;;4899947;29;19919;-74
2022/04/07 16:16:19;;;;;;;;;;;19.20;99.90;;;;;;4900214;29;19915;-75
2022/04/07 16:18:45;;;;;;;;;;;19.10;99.90;;;;;;4900131;29;19918;-75
2022/04/07 16:21:12;;;;;;;;;;;19.10;99.90;;;;;;4900296;29;19912;-73
2022/04/07 16:23:39;;;;;;;;;;;19.10;99.90;;;;;;4899990;29;20358;-74
2022/04/07 16:26:06;;;;;;;;;;;19.20;99.90;;;;;;4900012;29;20438;-73
2022/04/07 16:28:33;;;;;;;;;;;19.20;99.90;;;;;;4900006;29;19912;-73
2022/04/07 16:31:03;;;;;;;;;;;19.20;99.90;;;;;;4899859;29;19979;-74
2022/04/07 16:33:30;;;;;;;;;;;19.30;99.90;;;;;;4883075;29;19912;-73
2022/04/07 16:35:57;;;;;;;;;;;19.20;99.90;;;;;;4900035;29;19938;-74
2022/04/07 16:38:25;;;;;;;;;;;19.20;99.90;;;;;;4899944;29;20293;-73
2022/04/07 16:40:52;;;;;;;;;;;19.30;99.90;;;;;;4899700;29;19967;-73
2022/04/07 16:43:19;;;;;;;;;;;19.30;99.90;;;;;;4899677;29;19937;-73
2022/04/07 16:45:46;;;;;;;;;;;19.30;99.90;;;;;;4899279;29;20047;-74
2022/04/07 16:48:13;;;;;;;;;;;19.40;99.90;;;;;;4899630;29;20323;-73
2022/04/07 16:50:39;;;;;;;;;;;19.40;99.90;;;;;;4899556;29;20006;-74
2022/04/07 16:53:07;;;;;;;;;;;19.30;99.90;;;;;;4893771;29;19916;-75
2022/04/07 16:55:33;;;;;;;;;;;19.30;99.90;;;;;;4886122;29;19927;-75
2022/04/07 16:58:00;;;;;;;;;;;19.20;99.90;;;;;;4891405;29;20014;-74
2022/04/07 17:00:27;;;;;;;;;;;19.20;99.90;;;;;;4889116;29;19912;-72
2022/04/07 17:02:53;;;;;;;;;;;19.20;99.90;;;;;;4891047;29;19924;-73
2022/04/07 17:05:21;;;;;;;;;;;19.20;99.90;;;;;;4889678;29;20005;-74
2022/04/07 17:07:47;;;;;;;;;;;19.20;99.90;;;;;;4889958;29;20291;-73
2022/04/07 17:10:14;;;;;;;;;;;19.20;99.90;;;;;;4886168;29;19931;-74
2022/04/07 17:12:41;;;;;;;;;;;19.30;99.90;;;;;;4884449;29;19955;-74
2022/04/07 17:15:08;;;;;;;;;;;19.20;99.90;;;;;;4880278;29;19984;-73
2022/04/07 17:17:37;;;;;;;;;;;19.20;99.90;;;;;;4880314;29;19913;-74
2022/04/07 17:20:05;;;;;;;;;;;19.20;99.90;;;;;;4880516;29;19912;-74
2022/04/07 17:22:32;;;;;;;;;;;19.20;99.90;;;;;;4880213;29;19918;-74
2022/04/07 17:24:59;;;;;;;;;;;19.20;99.90;;;;;;4880363;29;19912;-74
2022/04/07 17:27:26;;;;;;;;;;;19.20;99.90;;;;;;4880345;29;19922;-74
2022/04/07 17:29:52;;;;;;;;;;;19.30;99.90;;;;;;4879872;29;19919;-73
2022/04/07 17:32:20;;;;;;;;;;;19.20;99.90;;;;;;4880029;29;19916;-75
2022/04/07 17:34:47;;;;;;;;;;;19.20;99.90;;;;;;4880013;29;19927;-74
2022/04/07 17:37:14;;;;;;;;;;;19.20;99.90;;;;;;4879965;29;19912;-73
2022/04/07 17:39:41;;;;;;;;;;;19.20;99.90;;;;;;4879863;29;19928;-74
2022/04/07 17:42:14;;;;;;;;;;;19.10;99.90;;;;;;4880018;29;20014;-75
2022/04/07 17:44:41;;;;;;;;;;;19.20;99.90;;;;;;4879743;29;19918;-74
2022/04/07 17:47:08;;;;;;;;;;;19.20;99.90;;;;;;4879831;29;19919;-74
2022/04/07 17:49:34;;;;;;;;;;;19.20;99.90;;;;;;4879685;29;19912;-73
2022/04/07 17:52:01;;;;;;;;;;;19.30;99.90;;;;;;4879815;29;19919;-74
2022/04/07 17:54:28;;;;;;;;;;;19.20;99.90;;;;;;4879732;29;19920;-73
2022/04/07 17:56:54;;;;;;;;;;;19.10;99.90;;;;;;4879770;29;19998;-73
2022/04/07 17:59:21;;;;;;;;;;;19.10;99.90;;;;;;4879666;29;19968;-75
2022/04/07 18:01:48;;;;;;;;;;;19.10;99.90;;;;;;4879473;29;20399;-72
2022/04/07 18:04:15;;;;;;;;;;;19.10;99.90;;;;;;4879647;29;19916;-73
2022/04/07 18:06:41;;;;;;;;;;;19.20;99.90;;;;;;4879590;29;19911;-73
2022/04/07 18:09:08;;;;;;;;;;;19.20;99.90;;;;;;4879591;29;19919;-73
2022/04/07 18:11:35;;;;;;;;;;;19.20;99.90;;;;;;4879378;29;20295;-73
2022/04/07 18:14:02;;;;;;;;;;;19.30;99.90;;;;;;4879454;29;20278;-73
2022/04/07 18:16:28;;;;;;;;;;;19.20;99.90;;;;;;4879622;29;19931;-74
2022/04/07 18:18:55;;;;;;;;;;;19.30;99.90;;;;;;4879116;29;19912;-73
2022/04/07 18:21:22;;;;;;;;;;;19.30;99.90;;;;;;4879595;29;19940;-74
2022/04/07 18:23:48;;;;;;;;;;;19.40;99.90;;;;;;4879478;29;19918;-72
2022/04/07 18:26:15;;;;;;;;;;;19.40;99.90;;;;;;4879655;29;19911;-72
2022/04/07 18:28:42;;;;;;;;;;;19.40;99.90;;;;;;4879431;29;20292;-72
2022/04/07 18:31:08;;;;;;;;;;;19.40;99.90;;;;;;4879515;29;19912;-73
2022/04/07 18:33:36;;;;;;;;;;;19.40;99.90;;;;;;4879340;29;19923;-72
2022/04/07 18:36:04;;;;;;;;;;;19.40;99.90;;;;;;4879346;29;19936;-72
2022/04/07 18:38:31;;;;;;;;;;;19.40;99.90;;;;;;4879480;29;20371;-72
2022/04/07 18:40:57;;;;;;;;;;;19.40;99.90;;;;;;4879405;29;19922;-72
2022/04/07 18:43:24;;;;;;;;;;;19.30;99.90;;;;;;4879229;29;19995;-73
2022/04/07 18:45:51;;;;;;;;;;;19.30;99.90;;;;;;4879231;29;19919;-74
2022/04/07 18:48:17;;;;;;;;;;;19.20;99.90;;;;;;4879327;29;20397;-73
2022/04/07 18:50:44;;;;;;;;;;;19.30;99.90;;;;;;4879306;29;19912;-72